Time;durP1;ratioP1;P1;durP2;ratioP2;P2;SDS_P1;SDS_P2;PMS_P1;PMS_P2;Temp;Humidity;BMP_temperature;BMP_pressure;BME280_temperature;BME280_humidity;BME280_pressure;Samples;Min_cycle;Max_cycle;Signal;HPM_P1;HPM_P2
2022/03/09 00:01:53;;;;;;;;;;;;;;;13.33;41.66;101611.59;4959130;28;127714;-63
2022/03/09 00:04:19;;;;;;;;;;;;;;;13.33;41.70;101614.31;4962434;28;98185;-62
2022/03/09 00:06:45;;;;;;;;;;;;;;;13.30;41.59;101607.50;4962187;28;98239;-62
2022/03/09 00:09:11;;;;;;;;;;;;;;;13.28;41.69;101617.75;4960979;28;126950;-62
2022/03/09 00:11:37;;;;;;;;;;;;;;;13.26;41.57;101612.59;4961502;28;98253;-64
2022/03/09 00:14:03;;;;;;;;;;;;;;;13.25;41.86;101604.75;4962484;28;98219;-64
2022/03/09 00:16:29;;;;;;;;;;;;;;;13.23;41.58;101607.69;4961541;28;107407;-62
2022/03/09 00:18:55;;;;;;;;;;;;;;;13.22;41.61;101605.22;4960829;28;128801;-62
2022/03/09 00:21:21;;;;;;;;;;;;;;;13.21;41.73;101611.72;4961043;28;127277;-62
2022/03/09 00:23:47;;;;;;;;;;;;;;;13.19;41.56;101605.75;4961870;28;127966;-62
2022/03/09 00:26:13;;;;;;;;;;;;;;;13.18;41.77;101604.13;4961864;28;97982;-62
2022/03/09 00:28:39;;;;;;;;;;;;;;;13.16;41.84;101603.53;4961208;28;126800;-64
2022/03/09 00:31:05;;;;;;;;;;;;;;;13.15;41.81;101612.75;4960911;28;121103;-62
2022/03/09 00:33:31;;;;;;;;;;;;;;;13.13;41.86;101607.59;4962993;28;98057;-63
2022/03/09 00:35:57;;;;;;;;;;;;;;;13.11;41.91;101607.03;4961827;28;97876;-62
2022/03/09 00:38:23;;;;;;;;;;;;;;;13.10;41.68;101601.88;4961461;28;112982;-63
2022/03/09 00:40:50;;;;;;;;;;;;;;;13.09;41.75;101594.84;4959440;28;129442;-62
2022/03/09 00:43:16;;;;;;;;;;;;;;;13.07;41.49;101596.97;4961216;28;98083;-64
2022/03/09 00:45:42;;;;;;;;;;;;;;;13.05;41.76;101597.25;4962914;28;98049;-63
2022/03/09 00:48:08;;;;;;;;;;;;;;;13.03;41.89;101602.88;4943180;28;98514;-63
2022/03/09 00:50:34;;;;;;;;;;;;;;;13.01;41.85;101602.34;4960547;28;128180;-62
2022/03/09 00:53:00;;;;;;;;;;;;;;;13.00;41.73;101597.16;4961013;28;126518;-62
2022/03/09 00:55:26;;;;;;;;;;;;;;;12.98;42.00;101597.44;4961068;28;117012;-63
2022/03/09 00:57:52;;;;;;;;;;;;;;;12.97;41.83;101597.69;4960835;28;128242;-62
2022/03/09 01:00:18;;;;;;;;;;;;;;;12.96;41.92;101594.16;4942081;28;126961;-62
2022/03/09 01:02:44;;;;;;;;;;;;;;;12.93;41.85;101591.97;4962210;28;97993;-63
2022/03/09 01:05:10;;;;;;;;;;;;;;;12.93;41.99;101597.41;4960180;28;98069;-62
2022/03/09 01:07:36;;;;;;;;;;;;;;;12.91;41.83;101596.81;4943184;28;98434;-62
2022/03/09 01:10:02;;;;;;;;;;;;;;;12.91;41.93;101601.41;4959827;28;126829;-62
2022/03/09 01:12:28;;;;;;;;;;;;;;;12.89;41.94;101593.56;4973451;28;104824;-64
2022/03/09 01:14:54;;;;;;;;;;;;;;;12.88;41.81;101601.91;4981116;28;98020;-62
2022/03/09 01:17:20;;;;;;;;;;;;;;;12.86;41.92;101601.38;4979912;28;127336;-62
2022/03/09 01:19:46;;;;;;;;;;;;;;;12.84;41.88;101595.38;4979785;28;126141;-62
2022/03/09 01:22:12;;;;;;;;;;;;;;;12.82;42.01;101595.66;4980699;28;126769;-62
2022/03/09 01:24:38;;;;;;;;;;;;;;;12.81;41.80;101596.72;4980398;28;116816;-64
2022/03/09 01:27:04;;;;;;;;;;;;;;;12.79;41.77;101593.44;4981420;28;98369;-62
2022/03/09 01:29:30;;;;;;;;;;;;;;;12.78;41.87;101597.22;4956317;28;128879;-62
2022/03/09 01:31:56;;;;;;;;;;;;;;;12.76;41.83;101599.38;4960804;28;128210;-62
2022/03/09 01:34:21;;;;;;;;;;;;;;;12.74;41.91;101596.09;4960392;28;117666;-62
2022/03/09 01:36:47;;;;;;;;;;;;;;;12.74;41.98;101593.41;4959374;28;128050;-64
2022/03/09 01:39:13;;;;;;;;;;;;;;;12.71;41.92;101597.41;4941550;28;128082;-62
2022/03/09 01:41:41;;;;;;;;;;;;;;;12.70;41.99;101595.81;4941364;28;109175;-62
2022/03/09 01:44:12;;;;;;;;;;;;;;;12.69;42.26;101593.31;4962281;28;117334;-62
2022/03/09 01:46:38;;;;;;;;;;;;;;;12.68;42.14;101592.50;4978874;28;98504;-62
2022/03/09 01:49:05;;;;;;;;;;;;;;;12.67;41.69;101593.59;4980363;28;103312;-62
2022/03/09 01:51:32;;;;;;;;;;;;;;;12.65;41.98;101586.78;4980305;28;98182;-62
2022/03/09 01:53:58;;;;;;;;;;;;;;;12.64;41.95;101588.69;4961890;28;97969;-62
2022/03/09 01:56:25;;;;;;;;;;;;;;;12.62;41.90;101588.13;4975994;28;98659;-63
2022/03/09 01:58:50;;;;;;;;;;;;;;;12.62;42.23;101587.31;4942746;28;98329;-62
2022/03/09 02:01:16;;;;;;;;;;;;;;;12.60;41.99;101581.34;4959078;28;127901;-62
2022/03/09 02:03:42;;;;;;;;;;;;;;;12.60;42.05;101581.34;4960692;28;117462;-62
2022/03/09 02:06:09;;;;;;;;;;;;;;;12.58;41.99;101578.09;4959469;28;127455;-64
2022/03/09 02:11:19;;;;;;;;;;;;;;;12.55;42.07;101587.50;4930283;28;98022;-63
2022/03/09 02:13:45;;;;;;;;;;;;;;;12.53;42.09;101582.34;4959885;28;100516;-64
2022/03/09 02:16:14;;;;;;;;;;;;;;;12.51;42.08;101584.50;4962909;28;127644;-63
2022/03/09 02:18:40;;;;;;;;;;;;;;;12.51;42.17;101594.50;4977985;28;98869;-62
2022/03/09 02:21:05;;;;;;;;;;;;;;;12.50;42.35;101584.75;4961527;28;98181;-62
2022/03/09 02:23:31;;;;;;;;;;;;;;;12.48;41.92;101582.28;4961953;28;116828;-64
2022/03/09 02:25:57;;;;;;;;;;;;;;;12.46;42.06;101573.63;4962222;28;126460;-62
2022/03/09 02:28:23;;;;;;;;;;;;;;;12.44;42.26;101564.94;4959319;28;128032;-63
2022/03/09 02:30:57;;;;;;;;;;;;;;;12.44;42.06;101588.47;4959059;28;127350;-62
2022/03/09 02:33:23;;;;;;;;;;;;;;;12.43;41.95;101584.13;4942674;28;98341;-62
2022/03/09 02:35:51;;;;;;;;;;;;;;;12.41;41.88;101578.13;4959163;28;128350;-63
2022/03/09 02:38:17;;;;;;;;;;;;;;;12.40;42.10;101571.91;4941807;28;98687;-62
2022/03/09 02:40:43;;;;;;;;;;;;;;;12.39;41.90;101574.88;4958808;28;128499;-62
2022/03/09 02:43:09;;;;;;;;;;;;;;;12.38;42.25;101578.63;4959890;28;117558;-64
2022/03/09 02:45:34;;;;;;;;;;;;;;;12.35;42.40;101579.97;4958341;28;127536;-62
2022/03/09 02:48:00;;;;;;;;;;;;;;;12.33;42.02;101574.00;4940875;28;121362;-64
2022/03/09 02:50:26;;;;;;;;;;;;;;;12.32;42.25;101571.56;4973217;28;119877;-63
2022/03/09 02:52:52;;;;;;;;;;;;;;;12.31;42.09;101573.44;4973184;28;97752;-64
2022/03/09 02:55:18;;;;;;;;;;;;;;;12.31;42.16;101576.16;4958587;28;127962;-62
2022/03/09 02:57:44;;;;;;;;;;;;;;;12.29;42.07;101580.97;4940998;28;99674;-62
2022/03/09 03:00:11;;;;;;;;;;;;;;;12.28;42.21;101580.16;4924718;28;126758;-62
2022/03/09 03:02:37;;;;;;;;;;;;;;;12.26;42.22;101578.78;4960067;28;98049;-64
2022/03/09 03:05:03;;;;;;;;;;;;;;;12.25;42.13;101582.53;4959483;28;98792;-64
2022/03/09 03:07:29;;;;;;;;;;;;;;;12.25;42.42;101577.13;4959086;28;98733;-62
2022/03/09 03:09:56;;;;;;;;;;;;;;;12.22;42.15;101569.53;4959252;28;126679;-64
2022/03/09 03:12:22;;;;;;;;;;;;;;;12.22;42.30;101580.34;4959802;28;97831;-62
2022/03/09 03:14:48;;;;;;;;;;;;;;;12.20;42.29;101577.09;4960069;28;119949;-64
2022/03/09 03:17:13;;;;;;;;;;;;;;;12.19;42.17;101581.69;4958451;28;127671;-62
2022/03/09 03:19:39;;;;;;;;;;;;;;;12.17;42.39;101573.00;4958341;28;126426;-62
2022/03/09 03:22:05;;;;;;;;;;;;;;;12.16;42.09;101584.88;4976005;28;98085;-63
2022/03/09 03:24:32;;;;;;;;;;;;;;;12.15;42.18;101583.25;4979121;28;98853;-64
2022/03/09 03:26:57;;;;;;;;;;;;;;;12.14;42.13;101578.88;4983046;28;98863;-64
2022/03/09 03:29:23;;;;;;;;;;;;;;;12.12;42.08;101582.94;4981843;28;127905;-64
2022/03/09 03:31:49;;;;;;;;;;;;;;;12.10;42.35;101583.16;4983209;28;98257;-62
2022/03/09 03:34:15;;;;;;;;;;;;;;;12.10;42.06;101579.66;4982819;28;108830;-64
2022/03/09 03:36:41;;;;;;;;;;;;;;;12.08;41.90;101579.91;4981270;28;128221;-64
2022/03/09 03:39:07;;;;;;;;;;;;;;;12.06;42.26;101578.50;4982035;28;127332;-64
2022/03/09 03:41:34;;;;;;;;;;;;;;;12.04;42.05;101574.19;4963376;28;116909;-64
2022/03/09 03:44:00;;;;;;;;;;;;;;;12.02;42.28;101581.75;4983098;28;98792;-64
2022/03/09 03:46:26;;;;;;;;;;;;;;;12.03;42.34;101587.97;4946631;28;97843;-62
2022/03/09 03:48:51;;;;;;;;;;;;;;;12.00;41.98;101585.75;4977049;28;109577;-62
2022/03/09 03:51:17;;;;;;;;;;;;;;;11.99;42.04;101587.63;4962596;28;117610;-64
2022/03/09 03:53:43;;;;;;;;;;;;;;;11.97;42.16;101581.66;4942582;28;129050;-62
2022/03/09 03:56:09;;;;;;;;;;;;;;;11.97;42.07;101589.75;4943678;28;113490;-62
2022/03/09 03:58:35;;;;;;;;;;;;;;;11.96;42.11;101581.91;4926803;28;117115;-64
2022/03/09 04:01:01;;;;;;;;;;;;;;;11.94;42.34;101579.44;4942941;28;116851;-64
2022/03/09 04:03:27;;;;;;;;;;;;;;;11.93;42.17;101579.69;4961084;28;129046;-62
2022/03/09 04:05:53;;;;;;;;;;;;;;;11.91;41.95;101582.66;4943389;28;126283;-64
2022/03/09 04:08:19;;;;;;;;;;;;;;;11.90;42.27;101586.41;4942985;28;127967;-64
2022/03/09 04:10:45;;;;;;;;;;;;;;;11.88;42.06;101585.03;4961592;28;117668;-64
2022/03/09 04:13:10;;;;;;;;;;;;;;;11.86;42.42;101579.88;4969218;28;105521;-64
2022/03/09 04:15:36;;;;;;;;;;;;;;;11.85;42.40;101588.22;4945827;28;127179;-64
2022/03/09 04:18:02;;;;;;;;;;;;;;;11.85;41.85;101582.84;4966199;28;127494;-64
2022/03/09 04:20:28;;;;;;;;;;;;;;;11.83;41.85;101582.22;4974211;28;117275;-62
2022/03/09 04:22:54;;;;;;;;;;;;;;;11.82;42.33;101577.88;4981709;28;116605;-64
2022/03/09 04:25:20;;;;;;;;;;;;;;;11.79;41.83;101580.03;4981972;28;128787;-63
2022/03/09 04:27:46;;;;;;;;;;;;;;;11.78;41.81;101583.78;4982453;28;98728;-64
2022/03/09 04:30:12;;;;;;;;;;;;;;;11.77;41.99;101587.56;4981157;28;117654;-64
2022/03/09 04:32:38;;;;;;;;;;;;;;;11.75;42.08;101589.69;4980732;28;128865;-64
2022/03/09 04:35:05;;;;;;;;;;;;;;;11.74;42.12;101595.34;4980218;28;98049;-62
2022/03/09 04:37:31;;;;;;;;;;;;;;;11.74;42.09;101598.03;4981900;27;97986;-64
2022/03/09 04:40:04;;;;;;;;;;;;;;;11.73;42.08;101596.41;4980669;28;99933;-64
2022/03/09 04:42:30;;;;;;;;;;;;;;;11.70;42.10;101592.31;4977856;28;98206;-62
2022/03/09 04:44:55;;;;;;;;;;;;;;;11.68;42.57;101597.16;4976233;28;98259;-62
2022/03/09 04:47:21;;;;;;;;;;;;;;;11.68;42.58;101599.03;4960500;28;116779;-62
2022/03/09 04:49:47;;;;;;;;;;;;;;;11.65;42.18;101605.75;4961009;28;101850;-64
2022/03/09 04:52:13;;;;;;;;;;;;;;;11.64;42.62;101608.69;4960820;28;98104;-64
2022/03/09 04:54:39;;;;;;;;;;;;;;;11.63;42.58;101609.75;4961111;28;116889;-62
2022/03/09 04:57:05;;;;;;;;;;;;;;;11.60;42.48;101607.56;4960886;28;117592;-62
2022/03/09 04:59:31;;;;;;;;;;;;;;;11.60;41.92;101607.56;4960382;28;110885;-62
2022/03/09 05:01:57;;;;;;;;;;;;;;;11.58;42.24;101613.19;4961857;28;98481;-62
2022/03/09 05:04:23;;;;;;;;;;;;;;;11.57;42.44;101616.16;4966425;28;97827;-62
2022/03/09 05:06:49;;;;;;;;;;;;;;;11.55;42.41;101619.06;4967662;28;97913;-65
2022/03/09 05:09:15;;;;;;;;;;;;;;;11.54;42.82;101629.06;4960786;28;109884;-62
2022/03/09 05:11:41;;;;;;;;;;;;;;;11.53;42.38;101623.91;4961074;28;127927;-64
2022/03/09 05:14:07;;;;;;;;;;;;;;;11.52;41.93;101619.59;4961130;28;98148;-64
2022/03/09 05:16:33;;;;;;;;;;;;;;;11.50;42.36;101622.50;4941967;28;116154;-64
2022/03/09 05:18:59;;;;;;;;;;;;;;;11.49;42.63;101622.78;4961076;28;97843;-64
2022/03/09 05:21:25;;;;;;;;;;;;;;;11.49;41.98;101630.88;4941725;28;101284;-62
2022/03/09 05:23:51;;;;;;;;;;;;;;;11.47;42.53;101628.41;4961587;28;98068;-62
2022/03/09 05:26:17;;;;;;;;;;;;;;;11.47;42.17;101631.09;4961352;28;120495;-62
2022/03/09 05:28:43;;;;;;;;;;;;;;;11.48;42.67;101632.75;4941571;28;103679;-64
2022/03/09 05:31:09;;;;;;;;;;;;;;;11.46;42.66;101634.88;4941210;28;100525;-64
2022/03/09 05:33:35;;;;;;;;;;;;;;;11.46;42.35;101631.34;4958089;28;98636;-62
2022/03/09 05:36:01;;;;;;;;;;;;;;;11.45;42.06;101630.53;4941650;28;98169;-62
2022/03/09 05:38:27;;;;;;;;;;;;;;;11.45;42.14;101635.94;4976671;28;98127;-64
2022/03/09 05:40:53;;;;;;;;;;;;;;;11.45;42.66;101649.44;4958404;28;98617;-62
2022/03/09 05:43:19;;;;;;;;;;;;;;;11.46;42.02;101639.47;4976428;28;98708;-65
2022/03/09 05:45:44;;;;;;;;;;;;;;;11.46;42.44;101645.66;4953243;28;112216;-62
2022/03/09 05:48:11;;;;;;;;;;;;;;;11.46;42.48;101637.56;4958178;28;98111;-64
2022/03/09 05:50:37;;;;;;;;;;;;;;;11.47;42.16;101647.31;4980508;28;98576;-62
2022/03/09 05:53:03;;;;;;;;;;;;;;;11.47;42.17;101647.31;4981186;28;98588;-64
2022/03/09 05:55:29;;;;;;;;;;;;;;;11.49;42.44;101645.19;4965569;28;98083;-62
2022/03/09 05:57:54;;;;;;;;;;;;;;;11.49;42.41;101649.78;4959408;28;117553;-62
2022/03/09 06:00:20;;;;;;;;;;;;;;;11.51;42.40;101650.34;4960013;28;127375;-62
2022/03/09 06:02:46;;;;;;;;;;;;;;;11.52;42.25;101652.00;4959716;28;124428;-62
2022/03/09 06:05:12;;;;;;;;;;;;;;;11.53;42.34;101651.72;4960095;28;98317;-64
2022/03/09 06:07:38;;;;;;;;;;;;;;;11.56;42.58;101650.44;4960815;28;98055;-62
2022/03/09 06:10:05;;;;;;;;;;;;;;;11.59;42.26;101649.94;4960206;28;98457;-62
2022/03/09 06:12:31;;;;;;;;;;;;;;;11.62;42.52;101659.44;4959311;28;115291;-62
2022/03/09 06:14:57;;;;;;;;;;;;;;;11.65;42.55;101662.47;4960042;28;98028;-62
2022/03/09 06:17:23;;;;;;;;;;;;;;;11.68;42.19;101656.56;4959902;28;101472;-63
2022/03/09 06:19:48;;;;;;;;;;;;;;;11.72;42.11;101662.31;4958785;28;119282;-62
2022/03/09 06:22:14;;;;;;;;;;;;;;;11.76;42.43;101668.84;4961738;28;127925;-64
2022/03/09 06:24:40;;;;;;;;;;;;;;;11.79;42.34;101666.47;4979612;28;98377;-63
2022/03/09 06:27:06;;;;;;;;;;;;;;;11.84;42.10;101670.34;4977640;28;117495;-63
2022/03/09 06:29:32;;;;;;;;;;;;;;;11.87;42.42;101667.13;4959501;28;128187;-64
2022/03/09 06:31:58;;;;;;;;;;;;;;;11.90;42.30;101672.88;4960766;28;98487;-62
2022/03/09 06:34:24;;;;;;;;;;;;;;;12.00;41.99;101674.91;4973530;28;125667;-64
2022/03/09 06:36:51;;;;;;;;;;;;;;;12.06;42.12;101663.09;4980602;28;99177;-62
2022/03/09 06:39:17;;;;;;;;;;;;;;;12.10;42.20;101666.13;4960969;28;98392;-62
2022/03/09 06:41:43;;;;;;;;;;;;;;;12.16;42.32;101670.56;4977081;28;124346;-63
2022/03/09 06:44:10;;;;;;;;;;;;;;;12.20;42.01;101674.41;4979932;28;104600;-62
2022/03/09 06:46:36;;;;;;;;;;;;;;;12.25;42.23;101671.75;4978956;28;97925;-62
2022/03/09 06:49:02;;;;;;;;;;;;;;;12.28;42.18;101672.06;4966928;28;128329;-64
2022/03/09 06:51:28;;;;;;;;;;;;;;;12.32;42.23;101683.22;4959257;28;98831;-63
2022/03/09 06:53:54;;;;;;;;;;;;;;;12.37;42.23;101675.16;4940876;28;127616;-62
2022/03/09 06:56:20;;;;;;;;;;;;;;;12.42;42.46;101686.06;4959054;28;117985;-63
2022/03/09 06:58:46;;;;;;;;;;;;;;;12.48;42.00;101690.47;4965221;28;118406;-64
2022/03/09 07:01:12;;;;;;;;;;;;;;;12.55;42.24;101693.00;4981317;27;126268;-63
2022/03/09 07:03:38;;;;;;;;;;;;;;;12.61;42.40;101691.97;4964499;28;106977;-62
2022/03/09 07:06:04;;;;;;;;;;;;;;;12.70;42.21;101695.06;4982632;28;98187;-62
2022/03/09 07:08:30;;;;;;;;;;;;;;;12.74;42.33;101691.63;4981018;28;111436;-64
2022/03/09 07:10:56;;;;;;;;;;;;;;;12.83;42.22;101694.69;4962110;28;128191;-62
2022/03/09 07:13:22;;;;;;;;;;;;;;;12.91;42.31;101691.53;4963480;28;101683;-64
2022/03/09 07:15:48;;;;;;;;;;;;;;;13.01;42.16;101698.97;4964057;28;97946;-62
2022/03/09 07:18:15;;;;;;;;;;;;;;;13.14;42.09;101695.84;4981859;28;128257;-64
2022/03/09 07:20:41;;;;;;;;;;;;;;;13.21;42.33;101707.31;4981389;28;98608;-62
2022/03/09 07:23:07;;;;;;;;;;;;;;;13.26;42.25;101704.66;4981757;28;125780;-64
2022/03/09 07:25:34;;;;;;;;;;;;;;;13.30;42.31;101696.84;4980756;28;97968;-63
2022/03/09 07:28:00;;;;;;;;;;;;;;;13.39;41.94;101702.63;4982159;28;98998;-63
2022/03/09 07:30:26;;;;;;;;;;;;;;;13.48;42.44;101698.41;4981884;28;105207;-63
2022/03/09 07:32:52;;;;;;;;;;;;;;;13.58;42.36;101701.19;4981897;28;128136;-62
2022/03/09 07:35:18;;;;;;;;;;;;;;;13.72;42.29;101701.56;4981095;28;112579;-64
2022/03/09 07:37:43;;;;;;;;;;;;;;;13.85;42.35;101709.25;4962687;28;127829;-64
2022/03/09 07:40:10;;;;;;;;;;;;;;;14.00;42.11;101703.16;4974770;28;127037;-64
2022/03/09 07:42:36;;;;;;;;;;;;;;;14.15;41.98;101705.16;4962179;28;98568;-62
2022/03/09 07:45:06;;;;;;;;;;;;;;;14.33;42.45;101703.88;4943359;28;117544;-63
2022/03/09 07:47:33;;;;;;;;;;;;;;;14.51;41.92;101711.63;4962848;28;98853;-63
2022/03/09 07:49:59;;;;;;;;;;;;;;;14.72;41.92;101707.91;4963378;28;115486;-64
2022/03/09 07:52:25;;;;;;;;;;;;;;;14.95;42.14;101700.41;4982647;28;122757;-63
2022/03/09 07:54:51;;;;;;;;;;;;;;;15.26;41.97;101705.91;4981228;28;116753;-63
2022/03/09 07:57:17;;;;;;;;;;;;;;;15.50;42.10;101707.03;4981395;28;126353;-64
2022/03/09 07:59:43;;;;;;;;;;;;;;;15.75;41.70;101695.38;4980507;28;126624;-64
2022/03/09 08:02:09;;;;;;;;;;;;;;;16.01;41.66;101696.19;4964463;28;127265;-63
2022/03/09 08:04:35;;;;;;;;;;;;;;;16.35;41.56;101699.13;4942422;28;117310;-64
2022/03/09 08:07:01;;;;;;;;;;;;;;;16.78;41.07;101693.25;4961375;28;126912;-63
2022/03/09 08:09:26;;;;;;;;;;;;;;;17.39;40.53;101695.63;4961450;28;128297;-64
2022/03/09 08:11:52;;;;;;;;;;;;;;;18.14;40.11;101692.56;4971965;27;128909;-63
2022/03/09 08:14:18;;;;;;;;;;;;;;;18.90;39.37;101701.78;4982055;28;115108;-63
2022/03/09 08:16:44;;;;;;;;;;;;;;;19.88;38.51;101703.88;4982166;28;98492;-64
2022/03/09 08:19:10;;;;;;;;;;;;;;;20.75;37.93;101705.81;4981281;28;128272;-63
2022/03/09 08:21:36;;;;;;;;;;;;;;;21.59;37.29;101699.81;4967110;28;126434;-64
2022/03/09 08:24:02;;;;;;;;;;;;;;;22.96;36.20;101713.72;4982209;28;97824;-64
2022/03/09 08:26:28;;;;;;;;;;;;;;;24.45;35.19;101715.97;4981577;28;112342;-63
2022/03/09 08:28:54;;;;;;;;;;;;;;;26.09;33.45;101713.84;4971710;28;127305;-64
2022/03/09 08:31:20;;;;;;;;;;;;;;;27.61;32.37;101715.38;4962544;28;98146;-64
2022/03/09 08:33:46;;;;;;;;;;;;;;;29.01;31.64;101719.72;4982836;28;98532;-63
2022/03/09 08:36:12;;;;;;;;;;;;;;;30.12;30.74;101722.69;4963668;28;98422;-64
2022/03/09 08:38:38;;;;;;;;;;;;;;;31.24;30.46;101718.44;4981758;28;98817;-64
2022/03/09 08:41:04;;;;;;;;;;;;;;;32.32;29.70;101728.72;4962591;28;97900;-64
2022/03/09 08:43:30;;;;;;;;;;;;;;;33.39;29.34;101726.56;4964282;28;116777;-64
2022/03/09 08:45:56;;;;;;;;;;;;;;;34.52;28.46;101713.16;4941764;28;127994;-64
2022/03/09 08:48:26;;;;;;;;;;;;;;;35.70;27.63;101717.50;4978788;28;123174;-64
2022/03/09 08:50:55;;;;;;;;;;;;;;;36.74;26.95;101712.59;4981523;28;97978;-64
2022/03/09 08:53:21;;;;;;;;;;;;;;;37.50;26.78;101712.50;4962734;28;107493;-63
2022/03/09 08:55:47;;;;;;;;;;;;;;;38.34;25.95;101705.94;4961448;28;113166;-64
2022/03/09 08:58:13;;;;;;;;;;;;;;;39.26;25.23;101699.69;4961046;28;98512;-65
2022/03/09 09:00:39;;;;;;;;;;;;;;;40.17;25.03;101705.63;4960993;28;115656;-64
2022/03/09 09:03:05;;;;;;;;;;;;;;;40.75;24.84;101707.66;4961625;28;117450;-64
2022/03/09 09:05:31;;;;;;;;;;;;;;;41.36;24.31;101707.47;4976327;28;98359;-64
2022/03/09 09:07:57;;;;;;;;;;;;;;;42.18;24.31;101701.97;4980773;28;98759;-63
2022/03/09 09:10:23;;;;;;;;;;;;;;;42.85;23.72;101700.00;4979844;28;127919;-61
2022/03/09 09:12:50;;;;;;;;;;;;;;;43.46;23.39;101686.28;4981968;28;97844;-62
2022/03/09 09:15:16;;;;;;;;;;;;;;;44.36;22.92;101692.63;4972493;28;98472;-62
2022/03/09 09:17:42;;;;;;;;;;;;;;;44.93;22.53;101687.19;4942117;28;126105;-62
2022/03/09 09:20:08;;;;;;;;;;;;;;;45.22;22.49;101685.84;4960253;28;98341;-63
2022/03/09 09:22:34;;;;;;;;;;;;;;;45.16;22.64;101679.22;4961463;28;97861;-63
2022/03/09 09:25:01;;;;;;;;;;;;;;;45.04;22.82;101675.28;4960383;28;128197;-62
2022/03/09 09:27:27;;;;;;;;;;;;;;;44.88;22.97;101667.13;4961237;28;98859;-62
2022/03/09 09:29:53;;;;;;;;;;;;;;;45.09;22.70;101660.47;4960778;28;99094;-62
2022/03/09 09:32:19;;;;;;;;;;;;;;;44.98;22.69;101663.78;4961723;28;97844;-62
2022/03/09 09:34:45;;;;;;;;;;;;;;;44.55;22.47;101660.09;4967890;28;128010;-62
2022/03/09 09:37:11;;;;;;;;;;;;;;;43.55;22.00;101644.59;4981060;28;99788;-62
2022/03/09 09:39:36;;;;;;;;;;;;;;;42.40;21.73;101638.91;4978978;28;127136;-62
2022/03/09 09:42:03;;;;;;;;;;;;;;;41.54;21.48;101636.19;4980390;28;117921;-63
2022/03/09 09:44:30;;;;;;;;;;;;;;;40.94;21.21;101630.41;4959435;28;115482;-63
2022/03/09 09:46:56;;;;;;;;;;;;;;;40.62;20.64;101626.53;4960414;28;98007;-62
2022/03/09 09:49:24;;;;;;;;;;;;;;;40.65;20.02;101630.50;4969839;28;98610;-63
2022/03/09 09:51:50;;;;;;;;;;;;;;;40.78;19.59;101622.81;4981233;28;97849;-62
2022/03/09 09:54:16;;;;;;;;;;;;;;;40.78;19.05;101622.81;4978540;28;98296;-63
2022/03/09 09:56:42;;;;;;;;;;;;;;;40.49;19.06;101632.13;4979970;28;98801;-62
2022/03/09 09:59:08;;;;;;;;;;;;;;;40.13;19.04;101620.25;4979811;28;128146;-62
2022/03/09 10:01:35;;;;;;;;;;;;;;;39.81;18.95;101627.50;4979238;28;117416;-63
2022/03/09 10:04:01;;;;;;;;;;;;;;;39.53;18.82;101628.97;4980047;28;98593;-62
2022/03/09 10:06:27;;;;;;;;;;;;;;;39.12;18.81;101624.69;4979727;28;117443;-63
2022/03/09 10:09:20;;;;;;;;;;;;;;;38.49;18.92;101622.81;4960760;28;128986;-64
2022/03/09 10:11:54;;;;;;;;;;;;;;;37.49;19.61;101624.53;4965609;28;97925;-64
2022/03/09 10:14:48;;;;;;;;;;;;;;;36.61;19.68;101616.09;4960543;28;99178;-64
2022/03/09 10:17:29;;;;;;;;;;;;;;;35.64;19.82;101610.63;4960843;28;99166;-64
2022/03/09 10:19:58;;;;;;;;;;;;;;;35.00;20.06;101611.03;4959879;28;98129;-64
2022/03/09 10:22:31;;;;;;;;;;;;;;;34.50;20.26;101605.63;4960515;28;97874;-62
2022/03/09 10:25:18;;;;;;;;;;;;;;;33.96;20.63;101614.88;4959768;28;98378;-64
2022/03/09 10:27:53;;;;;;;;;;;;;;;33.46;20.65;101616.88;4960486;28;98773;-62
2022/03/09 10:30:21;;;;;;;;;;;;;;;33.03;21.25;101611.16;4959585;28;97817;-62
2022/03/09 10:32:53;;;;;;;;;;;;;;;32.70;21.35;101615.81;4961093;28;97757;-62
2022/03/09 10:35:31;;;;;;;;;;;;;;;32.40;21.32;101620.81;4960421;28;98112;-62
2022/03/09 10:37:58;;;;;;;;;;;;;;;32.06;21.61;101609.81;4964722;28;98646;-63
2022/03/09 10:40:24;;;;;;;;;;;;;;;31.74;21.42;101609.53;4978376;28;114211;-62
2022/03/09 10:42:51;;;;;;;;;;;;;;;31.44;21.35;101615.22;4984190;28;104896;-63
2022/03/09 10:45:17;;;;;;;;;;;;;;;31.17;21.49;101608.97;4965294;28;102768;-64
2022/03/09 10:47:45;;;;;;;;;;;;;;;30.96;22.00;101603.94;4983769;28;98464;-62
2022/03/09 10:50:11;;;;;;;;;;;;;;;30.82;21.87;101607.38;4983454;28;98032;-63
2022/03/09 10:52:47;;;;;;;;;;;;;;;30.68;21.78;101602.38;4983757;28;97783;-64
2022/03/09 10:55:43;;;;;;;;;;;;;;;30.57;22.07;101598.66;4983234;28;97865;-64
2022/03/09 10:58:12;;;;;;;;;;;;;;;30.47;22.03;101602.09;4972303;28;126005;-64
2022/03/09 11:00:42;;;;;;;;;;;;;;;30.40;21.95;101611.16;4982799;28;98337;-65
2022/03/09 11:03:09;;;;;;;;;;;;;;;30.34;21.95;101598.75;4983835;28;98178;-63
2022/03/09 11:05:35;;;;;;;;;;;;;;;30.31;22.39;101605.06;4983043;28;97921;-62
2022/03/09 11:08:02;;;;;;;;;;;;;;;30.33;22.28;101597.13;4981547;28;98582;-63
2022/03/09 11:10:29;;;;;;;;;;;;;;;30.36;22.49;101599.16;4964435;28;98212;-62
2022/03/09 11:12:55;;;;;;;;;;;;;;;30.36;22.04;101596.38;4965944;28;97820;-62
2022/03/09 11:15:21;;;;;;;;;;;;;;;30.36;22.57;101599.16;4964439;28;98704;-62
2022/03/09 11:17:48;;;;;;;;;;;;;;;30.38;22.04;101588.50;4964330;28;98551;-64
2022/03/09 11:20:17;;;;;;;;;;;;;;;30.37;21.98;101589.66;4981747;28;97837;-62
2022/03/09 11:22:43;;;;;;;;;;;;;;;30.37;22.35;101597.19;4963630;28;111441;-64
2022/03/09 11:25:09;;;;;;;;;;;;;;;30.37;22.01;101586.88;4982020;28;114243;-62
2022/03/09 11:27:45;;;;;;;;;;;;;;;30.40;22.11;101586.13;4964498;28;128346;-62
2022/03/09 11:30:21;;;;;;;;;;;;;;;30.46;22.31;101583.81;4982892;28;98417;-62
2022/03/09 11:32:47;;;;;;;;;;;;;;;30.50;22.34;101595.81;4983004;28;97659;-62
2022/03/09 11:35:33;;;;;;;;;;;;;;;30.52;21.92;101588.66;4974578;28;101733;-62
2022/03/09 11:37:59;;;;;;;;;;;;;;;30.52;22.05;101585.88;4963545;28;98328;-64
2022/03/09 11:40:25;;;;;;;;;;;;;;;30.49;21.93;101583.06;4960975;28;121204;-64
2022/03/09 11:42:51;;;;;;;;;;;;;;;30.44;21.75;101575.84;4962371;28;102107;-62
2022/03/09 11:45:16;;;;;;;;;;;;;;;30.38;21.92;101574.59;4962590;28;100433;-65
2022/03/09 11:47:58;;;;;;;;;;;;;;;30.31;21.90;101575.28;4982717;28;100005;-65
2022/03/09 11:50:29;;;;;;;;;;;;;;;30.25;22.41;101570.41;4982096;28;98164;-64
2022/03/09 11:53:05;;;;;;;;;;;;;;;30.19;22.36;101572.72;4983476;28;97971;-62
2022/03/09 11:55:32;;;;;;;;;;;;;;;30.12;22.35;101569.81;4982048;28;98878;-65
2022/03/09 11:58:11;;;;;;;;;;;;;;;30.02;22.63;101567.66;4982728;28;98338;-62
2022/03/09 12:00:59;;;;;;;;;;;;;;;29.88;22.59;101570.25;4981735;28;98525;-65
2022/03/09 12:03:41;;;;;;;;;;;;;;;29.72;22.79;101556.50;4979409;28;97915;-65
2022/03/09 12:06:42;;;;;;;;;;;;;;;29.55;22.44;101555.81;4962245;28;99049;-62
2022/03/09 12:09:09;;;;;;;;;;;;;;;29.28;22.63;101552.16;4962206;28;97862;-65
2022/03/09 12:12:06;;;;;;;;;;;;;;;29.05;22.47;101551.31;4944195;28;98098;-65
2022/03/09 12:15:07;;;;;;;;;;;;;;;28.73;23.12;101545.94;4962871;28;97996;-62
2022/03/09 12:17:36;;;;;;;;;;;;;;;28.41;22.61;101538.88;4945761;28;98976;-62
2022/03/09 12:20:28;;;;;;;;;;;;;;;28.12;22.93;101549.31;4961266;28;98681;-62
2022/03/09 12:22:57;;;;;;;;;;;;;;;27.78;23.14;101548.13;4962655;28;100324;-62
2022/03/09 12:25:43;;;;;;;;;;;;;;;27.48;23.33;101540.25;4961824;28;98044;-65
2022/03/09 12:28:24;;;;;;;;;;;;;;;27.16;23.55;101543.00;4962334;28;98852;-64
2022/03/09 12:30:56;;;;;;;;;;;;;;;26.90;23.69;101537.09;4961824;28;98936;-62
2022/03/09 12:33:26;;;;;;;;;;;;;;;26.68;23.75;101547.56;4979496;28;97930;-65
2022/03/09 12:35:52;;;;;;;;;;;;;;;26.50;23.85;101537.13;4960739;28;107536;-62